sensor_id;sensor_type;location;lat;lon;timestamp;pressure;altitude;pressure_sealevel;temperature;humidity
38852;BME280;24605;50.092;9.182;2023-06-14T00:02:23;97600.38;;;17.72;40.46
38852;BME280;24605;50.092;9.182;2023-06-14T00:04:50;97598.50;;;17.72;40.37
38852;BME280;24605;50.092;9.182;2023-06-14T00:07:16;97596.97;;;17.64;40.62
38852;BME280;24605;50.092;9.182;2023-06-14T00:09:45;97603.44;;;17.68;40.52
38852;BME280;24605;50.092;9.182;2023-06-14T00:12:11;97592.63;;;17.51;40.85
38852;BME280;24605;50.092;9.182;2023-06-14T00:14:38;97594.19;;;17.41;41.27
38852;BME280;24605;50.092;9.182;2023-06-14T00:17:05;97599.06;;;17.44;41.05
38852;BME280;24605;50.092;9.182;2023-06-14T00:19:32;97595.50;;;17.50;41.11
38852;BME280;24605;50.092;9.182;2023-06-14T00:22:00;97598.41;;;17.48;41.16
38852;BME280;24605;50.092;9.182;2023-06-14T00:24:27;97600.28;;;17.41;41.40
38852;BME280;24605;50.092;9.182;2023-06-14T00:26:54;97600.53;;;17.39;41.39
38852;BME280;24605;50.092;9.182;2023-06-14T00:29:21;97593.47;;;17.33;41.84
38852;BME280;24605;50.092;9.182;2023-06-14T00:31:48;97603.63;;;17.36;41.65
38852;BME280;24605;50.092;9.182;2023-06-14T00:34:14;97598.03;;;17.26;42.16
38852;BME280;24605;50.092;9.182;2023-06-14T00:36:41;97599.72;;;17.20;42.30
38852;BME280;24605;50.092;9.182;2023-06-14T00:39:07;97592.13;;;17.05;42.69
38852;BME280;24605;50.092;9.182;2023-06-14T00:41:34;97598.31;;;17.18;42.58
38852;BME280;24605;50.092;9.182;2023-06-14T00:44:02;97594.78;;;17.05;43.12
38852;BME280;24605;50.092;9.182;2023-06-14T00:46:29;97601.75;;;17.00;43.45
38852;BME280;24605;50.092;9.182;2023-06-14T00:48:56;97594.91;;;16.92;43.68
38852;BME280;24605;50.092;9.182;2023-06-14T00:51:24;97601.63;;;16.95;43.90
38852;BME280;24605;50.092;9.182;2023-06-14T00:53:51;97608.25;;;16.79;44.54
38852;BME280;24605;50.092;9.182;2023-06-14T00:56:18;97607.91;;;16.68;44.96
38852;BME280;24605;50.092;9.182;2023-06-14T00:58:46;97601.97;;;16.73;45.23
38852;BME280;24605;50.092;9.182;2023-06-14T01:01:14;97598.34;;;16.67;45.20
38852;BME280;24605;50.092;9.182;2023-06-14T01:03:40;97599.81;;;16.63;45.51
38852;BME280;24605;50.092;9.182;2023-06-14T01:06:15;97605.00;;;16.51;46.20
38852;BME280;24605;50.092;9.182;2023-06-14T01:09:01;97599.84;;;16.31;46.97
38852;BME280;24605;50.092;9.182;2023-06-14T01:11:33;97596.38;;;16.37;46.96
38852;BME280;24605;50.092;9.182;2023-06-14T01:14:05;97596.38;;;16.37;47.01
38852;BME280;24605;50.092;9.182;2023-06-14T01:16:34;97597.19;;;16.31;47.13
38852;BME280;24605;50.092;9.182;2023-06-14T01:19:05;97597.94;;;16.13;47.93
38852;BME280;24605;50.092;9.182;2023-06-14T01:21:31;97590.38;;;16.17;47.56
38852;BME280;24605;50.092;9.182;2023-06-14T01:24:08;97592.06;;;16.11;48.14
38852;BME280;24605;50.092;9.182;2023-06-14T01:26:35;97595.91;;;16.15;48.31
38852;BME280;24605;50.092;9.182;2023-06-14T01:29:03;97600.69;;;16.00;48.90
38852;BME280;24605;50.092;9.182;2023-06-14T01:31:30;97603.88;;;16.08;48.92
38852;BME280;24605;50.092;9.182;2023-06-14T01:34:06;97591.56;;;15.89;49.26
38852;BME280;24605;50.092;9.182;2023-06-14T01:36:33;97596.81;;;16.02;49.24
38852;BME280;24605;50.092;9.182;2023-06-14T01:39:00;97593.31;;;16.02;48.87
38852;BME280;24605;50.092;9.182;2023-06-14T01:41:29;97593.81;;;15.92;49.73
38852;BME280;24605;50.092;9.182;2023-06-14T01:43:57;97592.97;;;15.91;49.87
38852;BME280;24605;50.092;9.182;2023-06-14T01:46:24;97591.94;;;15.92;50.06
38852;BME280;24605;50.092;9.182;2023-06-14T01:48:51;97583.78;;;16.01;49.66
38852;BME280;24605;50.092;9.182;2023-06-14T01:51:18;97589.28;;;15.99;49.98
38852;BME280;24605;50.092;9.182;2023-06-14T01:53:44;97590.75;;;15.95;49.91
38852;BME280;24605;50.092;9.182;2023-06-14T01:56:12;97585.47;;;15.81;50.58
38852;BME280;24605;50.092;9.182;2023-06-14T01:58:39;97588.00;;;15.63;51.81
38852;BME280;24605;50.092;9.182;2023-06-14T02:01:06;97589.72;;;15.50;51.94
38852;BME280;24605;50.092;9.182;2023-06-14T02:03:33;97591.75;;;15.48;52.23
38852;BME280;24605;50.092;9.182;2023-06-14T02:06:03;97596.56;;;15.58;52.32
38852;BME280;24605;50.092;9.182;2023-06-14T02:08:29;97592.94;;;15.52;52.36
38852;BME280;24605;50.092;9.182;2023-06-14T02:10:56;97597.81;;;15.56;52.40
38852;BME280;24605;50.092;9.182;2023-06-14T02:13:22;97588.91;;;15.43;52.98
38852;BME280;24605;50.092;9.182;2023-06-14T02:15:50;97599.22;;;15.51;53.01
38852;BME280;24605;50.092;9.182;2023-06-14T02:18:19;97597.00;;;15.55;53.10
38852;BME280;24605;50.092;9.182;2023-06-14T02:20:46;97576.09;;;15.47;52.54
38852;BME280;24605;50.092;9.182;2023-06-14T02:23:13;97595.16;;;15.56;52.72
38852;BME280;24605;50.092;9.182;2023-06-14T02:25:40;97598.03;;;15.54;53.22
38852;BME280;24605;50.092;9.182;2023-06-14T02:28:06;97594.94;;;15.57;53.05
38852;BME280;24605;50.092;9.182;2023-06-14T02:30:33;97599.66;;;15.48;53.51
38852;BME280;24605;50.092;9.182;2023-06-14T02:33:01;97599.88;;;15.47;53.34
38852;BME280;24605;50.092;9.182;2023-06-14T02:35:29;97598.03;;;15.47;53.12
38852;BME280;24605;50.092;9.182;2023-06-14T02:37:55;97599.47;;;15.43;53.24
38852;BME280;24605;50.092;9.182;2023-06-14T02:40:22;97599.69;;;15.35;53.90
38852;BME280;24605;50.092;9.182;2023-06-14T02:42:49;97597.91;;;15.29;53.91
38852;BME280;24605;50.092;9.182;2023-06-14T02:45:15;97605.41;;;15.25;54.43
38852;BME280;24605;50.092;9.182;2023-06-14T02:47:42;97571.16;;;15.05;54.21
38852;BME280;24605;50.092;9.182;2023-06-14T02:50:10;97607.03;;;15.33;54.36
38852;BME280;24605;50.092;9.182;2023-06-14T02:52:36;97610.72;;;15.25;54.18
38852;BME280;24605;50.092;9.182;2023-06-14T02:55:03;97602.78;;;15.18;54.87
38852;BME280;24605;50.092;9.182;2023-06-14T02:57:31;97610.31;;;15.22;54.95
38852;BME280;24605;50.092;9.182;2023-06-14T02:59:57;97610.31;;;15.08;55.34
38852;BME280;24605;50.092;9.182;2023-06-14T03:02:24;97610.13;;;15.10;55.27
38852;BME280;24605;50.092;9.182;2023-06-14T03:04:50;97606.88;;;15.14;55.10
38852;BME280;24605;50.092;9.182;2023-06-14T03:07:18;97608.31;;;15.03;55.80
38852;BME280;24605;50.092;9.182;2023-06-14T03:09:45;97618.06;;;15.03;55.55
38852;BME280;24605;50.092;9.182;2023-06-14T03:12:12;97593.16;;;14.72;56.80
38852;BME280;24605;50.092;9.182;2023-06-14T03:14:38;97607.94;;;14.86;56.39
38852;BME280;24605;50.092;9.182;2023-06-14T03:17:05;97618.09;;;14.90;56.22
38852;BME280;24605;50.092;9.182;2023-06-14T03:19:33;97609.34;;;14.96;55.77
38852;BME280;24605;50.092;9.182;2023-06-14T03:21:59;97617.28;;;14.96;56.21
38852;BME280;24605;50.092;9.182;2023-06-14T03:24:28;97623.34;;;15.03;55.65
38852;BME280;24605;50.092;9.182;2023-06-14T03:26:57;97625.97;;;15.03;55.55
38852;BME280;24605;50.092;9.182;2023-06-14T03:29:23;97630.47;;;15.02;55.79
38852;BME280;24605;50.092;9.182;2023-06-14T03:31:57;97634.94;;;14.88;56.39
38852;BME280;24605;50.092;9.182;2023-06-14T03:34:24;97631.66;;;15.00;56.13
38852;BME280;24605;50.092;9.182;2023-06-14T03:36:50;97635.53;;;14.91;55.99
38852;BME280;24605;50.092;9.182;2023-06-14T03:39:17;97633.50;;;14.93;55.73
38852;BME280;24605;50.092;9.182;2023-06-14T03:41:45;97633.31;;;14.87;55.96
38852;BME280;24605;50.092;9.182;2023-06-14T03:44:11;97644.69;;;14.95;55.58
38852;BME280;24605;50.092;9.182;2023-06-14T03:46:38;97642.84;;;14.95;55.68
38852;BME280;24605;50.092;9.182;2023-06-14T03:49:04;97636.75;;;14.95;55.42
38852;BME280;24605;50.092;9.182;2023-06-14T03:51:30;97647.13;;;14.90;55.71
38852;BME280;24605;50.092;9.182;2023-06-14T03:53:57;97651.59;;;14.96;55.95
38852;BME280;24605;50.092;9.182;2023-06-14T03:56:23;97651.97;;;14.86;56.25
38852;BME280;24605;50.092;9.182;2023-06-14T03:58:51;97660.50;;;14.95;55.99
38852;BME280;24605;50.092;9.182;2023-06-14T04:01:18;97649.16;;;14.87;56.45
38852;BME280;24605;50.092;9.182;2023-06-14T04:03:45;97650.16;;;14.93;56.00
38852;BME280;24605;50.092;9.182;2023-06-14T04:06:11;97656.06;;;14.75;56.98
38852;BME280;24605;50.092;9.182;2023-06-14T04:08:39;97661.13;;;14.83;58.42
38852;BME280;24605;50.092;9.182;2023-06-14T04:11:06;97659.69;;;15.14;56.30
38852;BME280;24605;50.092;9.182;2023-06-14T04:13:33;97667.19;;;15.24;55.85
38852;BME280;24605;50.092;9.182;2023-06-14T04:16:01;97660.31;;;15.10;56.39
38852;BME280;24605;50.092;9.182;2023-06-14T04:18:28;97671.88;;;15.15;56.98
38852;BME280;24605;50.092;9.182;2023-06-14T04:20:54;97661.94;;;15.11;56.03
38852;BME280;24605;50.092;9.182;2023-06-14T04:23:21;97679.38;;;15.25;56.17
38852;BME280;24605;50.092;9.182;2023-06-14T04:25:48;97675.50;;;15.21;56.44
38852;BME280;24605;50.092;9.182;2023-06-14T04:28:15;97673.66;;;15.35;55.88
38852;BME280;24605;50.092;9.182;2023-06-14T04:30:42;97678.75;;;15.23;55.85
38852;BME280;24605;50.092;9.182;2023-06-14T04:33:11;97679.56;;;15.37;55.74
38852;BME280;24605;50.092;9.182;2023-06-14T04:35:37;97680.56;;;15.36;56.36
38852;BME280;24605;50.092;9.182;2023-06-14T04:38:04;97692.13;;;15.55;55.33
38852;BME280;24605;50.092;9.182;2023-06-14T04:40:34;97683.38;;;15.55;55.56
38852;BME280;24605;50.092;9.182;2023-06-14T04:43:01;97690.84;;;15.85;54.59
38852;BME280;24605;50.092;9.182;2023-06-14T04:45:30;97694.44;;;15.97;54.04
38852;BME280;24605;50.092;9.182;2023-06-14T04:47:58;97692.41;;;15.92;54.02
38852;BME280;24605;50.092;9.182;2023-06-14T04:50:26;97687.56;;;15.82;54.28
38852;BME280;24605;50.092;9.182;2023-06-14T04:52:52;97698.13;;;15.82;54.76
38852;BME280;24605;50.092;9.182;2023-06-14T04:55:19;97701.47;;;15.51;56.64
38852;BME280;24605;50.092;9.182;2023-06-14T04:57:46;97698.31;;;15.94;55.64
38852;BME280;24605;50.092;9.182;2023-06-14T05:00:13;97705.00;;;16.04;55.62
38852;BME280;24605;50.092;9.182;2023-06-14T05:02:39;97659.78;;;15.60;55.06
38852;BME280;24605;50.092;9.182;2023-06-14T05:05:07;97702.97;;;15.99;55.14
38852;BME280;24605;50.092;9.182;2023-06-14T05:07:35;97706.38;;;16.13;55.13
38852;BME280;24605;50.092;9.182;2023-06-14T05:10:02;97698.97;;;16.28;54.80
38852;BME280;24605;50.092;9.182;2023-06-14T05:12:28;97707.66;;;16.42;53.98
38852;BME280;24605;50.092;9.182;2023-06-14T05:14:55;97709.09;;;16.38;54.28
38852;BME280;24605;50.092;9.182;2023-06-14T05:17:23;97693.81;;;16.40;54.25
38852;BME280;24605;50.092;9.182;2023-06-14T05:19:50;97706.72;;;16.62;54.36
38852;BME280;24605;50.092;9.182;2023-06-14T05:22:16;97703.31;;;16.55;53.88
38852;BME280;24605;50.092;9.182;2023-06-14T05:24:44;97704.41;;;16.72;53.20
38852;BME280;24605;50.092;9.182;2023-06-14T05:27:13;97711.22;;;16.87;52.16
38852;BME280;24605;50.092;9.182;2023-06-14T05:29:39;97704.47;;;16.91;52.24
38852;BME280;24605;50.092;9.182;2023-06-14T05:32:07;97708.56;;;16.87;52.18
38852;BME280;24605;50.092;9.182;2023-06-14T05:34:34;97713.16;;;16.73;52.71
38852;BME280;24605;50.092;9.182;2023-06-14T05:37:00;97716.81;;;16.72;52.44
38852;BME280;24605;50.092;9.182;2023-06-14T05:39:29;97719.50;;;17.04;52.21
38852;BME280;24605;50.092;9.182;2023-06-14T05:41:57;97711.34;;;16.99;52.03
38852;BME280;24605;50.092;9.182;2023-06-14T05:44:23;97721.22;;;16.85;52.68
38852;BME280;24605;50.092;9.182;2023-06-14T05:46:49;97726.84;;;17.27;52.51
38852;BME280;24605;50.092;9.182;2023-06-14T05:49:16;97729.63;;;17.07;51.43
38852;BME280;24605;50.092;9.182;2023-06-14T05:51:42;97726.22;;;17.00;51.87
38852;BME280;24605;50.092;9.182;2023-06-14T05:54:09;97730.91;;;16.98;53.15
38852;BME280;24605;50.092;9.182;2023-06-14T05:56:35;97723.19;;;16.96;52.99
38852;BME280;24605;50.092;9.182;2023-06-14T05:59:03;97729.59;;;17.14;52.17
38852;BME280;24605;50.092;9.182;2023-06-14T06:01:30;97731.97;;;17.22;51.90
38852;BME280;24605;50.092;9.182;2023-06-14T06:03:59;97734.22;;;17.44;51.25
38852;BME280;24605;50.092;9.182;2023-06-14T06:06:25;97725.75;;;17.53;50.74
38852;BME280;24605;50.092;9.182;2023-06-14T06:08:52;97735.13;;;17.75;50.85
38852;BME280;24605;50.092;9.182;2023-06-14T06:11:18;97734.69;;;17.78;51.50
38852;BME280;24605;50.092;9.182;2023-06-14T06:13:45;97737.19;;;17.73;51.48
38852;BME280;24605;50.092;9.182;2023-06-14T06:16:13;97687.38;;;17.37;50.72
38852;BME280;24605;50.092;9.182;2023-06-14T06:18:39;97744.63;;;17.82;50.08
38852;BME280;24605;50.092;9.182;2023-06-14T06:21:06;97734.69;;;17.78;50.56
38852;BME280;24605;50.092;9.182;2023-06-14T06:23:32;97723.56;;;17.88;49.48
38852;BME280;24605;50.092;9.182;2023-06-14T06:25:59;97741.47;;;18.11;49.52
38852;BME280;24605;50.092;9.182;2023-06-14T06:28:25;97741.75;;;17.84;50.13
38852;BME280;24605;50.092;9.182;2023-06-14T06:30:51;97750.44;;;17.91;50.08
38852;BME280;24605;50.092;9.182;2023-06-14T06:33:20;97748.91;;;18.21;50.01
38852;BME280;24605;50.092;9.182;2023-06-14T06:35:46;97753.53;;;18.25;49.12
38852;BME280;24605;50.092;9.182;2023-06-14T06:38:12;97742.34;;;17.86;49.94
38852;BME280;24605;50.092;9.182;2023-06-14T06:40:39;97754.06;;;17.78;49.04
38852;BME280;24605;50.092;9.182;2023-06-14T06:43:05;97750.34;;;18.05;49.96
38852;BME280;24605;50.092;9.182;2023-06-14T06:45:32;97754.94;;;18.46;49.36
38852;BME280;24605;50.092;9.182;2023-06-14T06:47:59;97759.03;;;18.61;48.36
38852;BME280;24605;50.092;9.182;2023-06-14T06:50:26;97764.59;;;18.71;48.39
38852;BME280;24605;50.092;9.182;2023-06-14T06:52:53;97767.34;;;18.64;48.38
38852;BME280;24605;50.092;9.182;2023-06-14T06:55:20;97764.44;;;18.36;48.33
38852;BME280;24605;50.092;9.182;2023-06-14T06:57:46;97774.28;;;18.66;47.38
38852;BME280;24605;50.092;9.182;2023-06-14T07:00:15;97769.59;;;18.49;48.14
38852;BME280;24605;50.092;9.182;2023-06-14T07:02:43;97767.66;;;18.56;48.32
38852;BME280;24605;50.092;9.182;2023-06-14T07:05:09;97780.88;;;18.75;47.93
38852;BME280;24605;50.092;9.182;2023-06-14T07:07:37;97770.38;;;18.80;47.40
38852;BME280;24605;50.092;9.182;2023-06-14T07:10:04;97780.06;;;19.05;46.47
38852;BME280;24605;50.092;9.182;2023-06-14T07:12:31;97785.25;;;19.00;46.54
38852;BME280;24605;50.092;9.182;2023-06-14T07:14:59;97783.88;;;18.67;47.67
38852;BME280;24605;50.092;9.182;2023-06-14T07:17:26;97778.81;;;18.77;47.07
38852;BME280;24605;50.092;9.182;2023-06-14T07:19:52;97780.25;;;18.91;46.77
38852;BME280;24605;50.092;9.182;2023-06-14T07:22:19;97774.88;;;18.68;46.62
38852;BME280;24605;50.092;9.182;2023-06-14T07:24:47;97777.31;;;18.81;47.21
38852;BME280;24605;50.092;9.182;2023-06-14T07:27:13;97779.59;;;18.96;47.04
38852;BME280;24605;50.092;9.182;2023-06-14T07:29:40;97776.75;;;19.21;45.96
38852;BME280;24605;50.092;9.182;2023-06-14T07:32:07;97751.78;;;18.80;46.40
38852;BME280;24605;50.092;9.182;2023-06-14T07:34:33;97776.72;;;19.09;46.10
38852;BME280;24605;50.092;9.182;2023-06-14T07:37:00;97773.63;;;19.24;45.68
38852;BME280;24605;50.092;9.182;2023-06-14T07:39:26;97779.09;;;19.30;46.16
38852;BME280;24605;50.092;9.182;2023-06-14T07:41:54;97775.16;;;19.44;45.71
38852;BME280;24605;50.092;9.182;2023-06-14T07:44:20;97776.31;;;19.60;45.37
38852;BME280;24605;50.092;9.182;2023-06-14T07:46:47;97770.75;;;19.73;45.46
38852;BME280;24605;50.092;9.182;2023-06-14T07:49:14;97772.25;;;19.34;44.92
38852;BME280;24605;50.092;9.182;2023-06-14T07:51:41;97783.13;;;19.32;45.18
38852;BME280;24605;50.092;9.182;2023-06-14T07:54:08;97786.13;;;19.24;45.21
38852;BME280;24605;50.092;9.182;2023-06-14T07:56:34;97798.63;;;18.93;45.35
38852;BME280;24605;50.092;9.182;2023-06-14T07:59:02;97790.16;;;18.84;46.02
38852;BME280;24605;50.092;9.182;2023-06-14T08:01:31;97775.38;;;18.88;45.73
38852;BME280;24605;50.092;9.182;2023-06-14T08:03:58;97788.66;;;19.31;45.98
38852;BME280;24605;50.092;9.182;2023-06-14T08:06:24;97790.53;;;19.54;44.46
38852;BME280;24605;50.092;9.182;2023-06-14T08:08:51;97792.16;;;19.67;44.04
38852;BME280;24605;50.092;9.182;2023-06-14T08:11:18;97794.00;;;19.78;43.84
38852;BME280;24605;50.092;9.182;2023-06-14T08:13:44;97769.72;;;19.63;44.25
38852;BME280;24605;50.092;9.182;2023-06-14T08:16:12;97794.09;;;20.19;43.07
38852;BME280;24605;50.092;9.182;2023-06-14T08:18:38;97795.34;;;20.28;42.35
38852;BME280;24605;50.092;9.182;2023-06-14T08:21:05;97793.69;;;20.39;41.23
38852;BME280;24605;50.092;9.182;2023-06-14T08:23:32;97793.63;;;20.22;41.69
38852;BME280;24605;50.092;9.182;2023-06-14T08:25:59;97800.22;;;20.08;42.32
38852;BME280;24605;50.092;9.182;2023-06-14T08:28:26;97795.59;;;20.15;41.85
38852;BME280;24605;50.092;9.182;2023-06-14T08:30:53;97793.44;;;19.88;42.76
38852;BME280;24605;50.092;9.182;2023-06-14T08:33:20;97785.56;;;19.81;41.77
38852;BME280;24605;50.092;9.182;2023-06-14T08:35:47;97790.25;;;20.27;40.15
38852;BME280;24605;50.092;9.182;2023-06-14T08:38:14;97798.88;;;20.46;40.59
38852;BME280;24605;50.092;9.182;2023-06-14T08:40:41;97793.09;;;20.78;41.00
38852;BME280;24605;50.092;9.182;2023-06-14T08:43:08;97800.53;;;20.35;40.33
38852;BME280;24605;50.092;9.182;2023-06-14T08:45:34;97795.25;;;20.52;39.15
38852;BME280;24605;50.092;9.182;2023-06-14T08:48:01;97799.88;;;20.57;39.75
38852;BME280;24605;50.092;9.182;2023-06-14T08:50:29;97801.81;;;20.73;38.85
38852;BME280;24605;50.092;9.182;2023-06-14T08:53:00;97803.22;;;20.76;39.26
38852;BME280;24605;50.092;9.182;2023-06-14T08:55:28;97804.63;;;21.12;39.32
38852;BME280;24605;50.092;9.182;2023-06-14T08:57:56;97797.13;;;20.80;38.91
38852;BME280;24605;50.092;9.182;2023-06-14T09:00:24;97800.38;;;20.42;38.67
38852;BME280;24605;50.092;9.182;2023-06-14T09:02:51;97777.78;;;20.56;38.82
38852;BME280;24605;50.092;9.182;2023-06-14T09:05:22;97804.63;;;20.26;39.14
38852;BME280;24605;50.092;9.182;2023-06-14T09:07:50;97785.75;;;20.15;37.46
38852;BME280;24605;50.092;9.182;2023-06-14T09:10:18;97813.31;;;20.62;38.29
38852;BME280;24605;50.092;9.182;2023-06-14T09:12:44;97808.53;;;20.76;38.09
38852;BME280;24605;50.092;9.182;2023-06-14T09:15:11;97812.69;;;21.01;36.64
38852;BME280;24605;50.092;9.182;2023-06-14T09:17:39;97820.22;;;21.38;35.44
38852;BME280;24605;50.092;9.182;2023-06-14T09:20:07;97816.19;;;21.35;37.64
38852;BME280;24605;50.092;9.182;2023-06-14T09:22:36;97822.34;;;21.53;36.20
38852;BME280;24605;50.092;9.182;2023-06-14T09:25:05;97813.41;;;21.59;36.45
38852;BME280;24605;50.092;9.182;2023-06-14T09:27:32;97823.78;;;21.78;36.27
38852;BME280;24605;50.092;9.182;2023-06-14T09:30:01;97821.59;;;21.91;36.95
38852;BME280;24605;50.092;9.182;2023-06-14T09:32:27;97831.06;;;21.48;37.53
38852;BME280;24605;50.092;9.182;2023-06-14T09:34:54;97831.41;;;21.35;37.78
38852;BME280;24605;50.092;9.182;2023-06-14T09:37:28;97824.34;;;21.80;37.83
38852;BME280;24605;50.092;9.182;2023-06-14T09:39:56;97837.06;;;21.72;37.79
38852;BME280;24605;50.092;9.182;2023-06-14T09:42:24;97839.88;;;22.22;37.36
38852;BME280;24605;50.092;9.182;2023-06-14T09:44:52;97833.00;;;22.26;36.52
38852;BME280;24605;50.092;9.182;2023-06-14T09:47:19;97819.94;;;22.47;35.80
38852;BME280;24605;50.092;9.182;2023-06-14T09:49:46;97834.94;;;23.03;35.38
38852;BME280;24605;50.092;9.182;2023-06-14T09:52:15;97835.94;;;22.96;35.70
38852;BME280;24605;50.092;9.182;2023-06-14T09:54:43;97833.19;;;23.13;34.45
38852;BME280;24605;50.092;9.182;2023-06-14T09:57:12;97839.88;;;22.22;36.80
38852;BME280;24605;50.092;9.182;2023-06-14T09:59:42;97834.75;;;22.37;37.02
38852;BME280;24605;50.092;9.182;2023-06-14T10:02:17;97835.94;;;22.96;34.81
38852;BME280;24605;50.092;9.182;2023-06-14T10:04:46;97839.38;;;22.64;36.54
38852;BME280;24605;50.092;9.182;2023-06-14T10:07:17;97831.19;;;23.63;35.38
38852;BME280;24605;50.092;9.182;2023-06-14T10:09:45;97844.72;;;23.84;33.90
38852;BME280;24605;50.092;9.182;2023-06-14T10:12:16;97833.97;;;23.79;34.15
38852;BME280;24605;50.092;9.182;2023-06-14T10:14:48;97840.97;;;23.80;33.73
38852;BME280;24605;50.092;9.182;2023-06-14T10:17:22;97809.19;;;23.19;34.94
38852;BME280;24605;50.092;9.182;2023-06-14T10:19:50;97847.91;;;23.43;35.08
38852;BME280;24605;50.092;9.182;2023-06-14T10:22:22;97834.34;;;23.93;33.97
38852;BME280;24605;50.092;9.182;2023-06-14T10:24:50;97841.50;;;24.30;33.36
38852;BME280;24605;50.092;9.182;2023-06-14T10:27:17;97832.78;;;23.97;32.17
38852;BME280;24605;50.092;9.182;2023-06-14T10:30:07;97819.56;;;24.33;32.07
38852;BME280;24605;50.092;9.182;2023-06-14T10:32:34;97842.31;;;25.15;31.57
38852;BME280;24605;50.092;9.182;2023-06-14T10:35:04;97841.28;;;25.42;27.01
38852;BME280;24605;50.092;9.182;2023-06-14T10:37:31;97841.25;;;25.21;30.16
38852;BME280;24605;50.092;9.182;2023-06-14T10:39:58;97848.78;;;24.40;32.51
38852;BME280;24605;50.092;9.182;2023-06-14T10:42:28;97841.50;;;24.25;32.35
38852;BME280;24605;50.092;9.182;2023-06-14T10:44:58;97846.78;;;24.73;30.86
38852;BME280;24605;50.092;9.182;2023-06-14T10:47:28;97842.72;;;24.65;30.60
38852;BME280;24605;50.092;9.182;2023-06-14T10:49:55;97833.03;;;23.58;33.80
38852;BME280;24605;50.092;9.182;2023-06-14T10:52:24;97836.81;;;23.67;31.77
38852;BME280;24605;50.092;9.182;2023-06-14T10:55:05;97835.44;;;23.22;31.99
38852;BME280;24605;50.092;9.182;2023-06-14T10:57:35;97840.69;;;23.44;31.91
38852;BME280;24605;50.092;9.182;2023-06-14T11:00:03;97841.88;;;23.58;31.65
38852;BME280;24605;50.092;9.182;2023-06-14T11:02:53;97839.66;;;24.31;31.07
38852;BME280;24605;50.092;9.182;2023-06-14T11:05:26;97852.38;;;24.08;30.71
38852;BME280;24605;50.092;9.182;2023-06-14T11:08:02;97844.00;;;24.47;31.33
38852;BME280;24605;50.092;9.182;2023-06-14T11:10:37;97844.13;;;24.88;31.08
38852;BME280;24605;50.092;9.182;2023-06-14T11:13:04;97847.31;;;24.70;32.05
38852;BME280;24605;50.092;9.182;2023-06-14T11:15:31;97843.41;;;24.35;31.32
38852;BME280;24605;50.092;9.182;2023-06-14T11:18:00;97840.38;;;24.74;31.49
38852;BME280;24605;50.092;9.182;2023-06-14T11:20:30;97841.59;;;24.51;31.66
38852;BME280;24605;50.092;9.182;2023-06-14T11:22:58;97846.44;;;24.54;32.17
38852;BME280;24605;50.092;9.182;2023-06-14T11:25:24;97839.69;;;23.93;33.04
38852;BME280;24605;50.092;9.182;2023-06-14T11:27:52;97841.84;;;22.98;34.49
38852;BME280;24605;50.092;9.182;2023-06-14T11:30:18;97844.03;;;22.35;35.59
38852;BME280;24605;50.092;9.182;2023-06-14T11:32:46;97834.16;;;22.13;35.22
38852;BME280;24605;50.092;9.182;2023-06-14T11:35:15;97831.25;;;23.09;33.60
38852;BME280;24605;50.092;9.182;2023-06-14T11:37:41;97837.66;;;22.36;35.52
38852;BME280;24605;50.092;9.182;2023-06-14T11:40:10;97840.72;;;22.05;35.83
38852;BME280;24605;50.092;9.182;2023-06-14T11:42:37;97837.03;;;22.73;34.63
38852;BME280;24605;50.092;9.182;2023-06-14T11:45:07;97836.59;;;22.81;33.92
38852;BME280;24605;50.092;9.182;2023-06-14T11:47:34;97815.13;;;23.26;32.85
38852;BME280;24605;50.092;9.182;2023-06-14T11:50:01;97824.53;;;23.66;31.86
38852;BME280;24605;50.092;9.182;2023-06-14T11:52:30;97836.41;;;24.29;31.64
38852;BME280;24605;50.092;9.182;2023-06-14T11:54:57;97835.25;;;24.09;32.26
38852;BME280;24605;50.092;9.182;2023-06-14T11:57:24;97838.78;;;25.04;28.97
38852;BME280;24605;50.092;9.182;2023-06-14T11:59:51;97825.97;;;25.53;29.70
38852;BME280;24605;50.092;9.182;2023-06-14T12:02:19;97844.44;;;25.18;29.84
38852;BME280;24605;50.092;9.182;2023-06-14T12:04:47;97842.34;;;25.46;28.94
38852;BME280;24605;50.092;9.182;2023-06-14T12:07:15;97842.28;;;24.94;29.51
38852;BME280;24605;50.092;9.182;2023-06-14T12:10:03;97843.69;;;25.64;28.03
38852;BME280;24605;50.092;9.182;2023-06-14T12:12:35;97845.06;;;25.51;27.99
38852;BME280;24605;50.092;9.182;2023-06-14T12:15:03;97832.91;;;24.92;29.57
38852;BME280;24605;50.092;9.182;2023-06-14T12:17:32;97830.19;;;24.86;29.18
38852;BME280;24605;50.092;9.182;2023-06-14T12:19:58;97825.94;;;25.22;28.88
38852;BME280;24605;50.092;9.182;2023-06-14T12:22:28;97839.63;;;25.15;29.98
38852;BME280;24605;50.092;9.182;2023-06-14T12:24:57;97831.81;;;24.93;29.06
38852;BME280;24605;50.092;9.182;2023-06-14T12:27:23;97837.19;;;24.98;28.45
38852;BME280;24605;50.092;9.182;2023-06-14T12:29:59;97841.94;;;24.70;29.75
38852;BME280;24605;50.092;9.182;2023-06-14T12:32:25;97833.31;;;24.58;29.38
38852;BME280;24605;50.092;9.182;2023-06-14T12:34:52;97836.06;;;24.73;30.00
38852;BME280;24605;50.092;9.182;2023-06-14T12:37:18;97833.44;;;24.99;29.69
38852;BME280;24605;50.092;9.182;2023-06-14T12:39:45;97832.50;;;24.57;30.25
38852;BME280;24605;50.092;9.182;2023-06-14T12:42:13;97824.72;;;24.55;30.28
38852;BME280;24605;50.092;9.182;2023-06-14T12:44:39;97831.88;;;24.34;29.83
38852;BME280;24605;50.092;9.182;2023-06-14T12:47:06;97830.97;;;23.33;30.69
38852;BME280;24605;50.092;9.182;2023-06-14T12:49:33;97823.19;;;24.12;30.38
38852;BME280;24605;50.092;9.182;2023-06-14T12:51:59;97836.28;;;24.61;29.39
38852;BME280;24605;50.092;9.182;2023-06-14T12:54:26;97837.91;;;24.67;29.93
38852;BME280;24605;50.092;9.182;2023-06-14T12:56:53;97822.19;;;25.02;29.08
38852;BME280;24605;50.092;9.182;2023-06-14T12:59:21;97840.38;;;26.19;27.60
38852;BME280;24605;50.092;9.182;2023-06-14T13:01:48;97837.31;;;26.46;27.99
38852;BME280;24605;50.092;9.182;2023-06-14T13:04:15;97838.88;;;25.56;28.44